createdAt,value
2022-10-24T00:03:02.630Z,7.90
2022-10-24T00:09:26.959Z,7.50
2022-10-24T00:15:51.208Z,7.40
2022-10-24T00:22:43.405Z,7.30
2022-10-24T00:29:09.554Z,7.20
2022-10-24T00:35:35.082Z,7.10
2022-10-24T00:41:59.050Z,7.10
2022-10-24T00:48:23.338Z,6.70
2022-10-24T00:54:49.738Z,6.60
2022-10-24T01:01:14.251Z,7.10
2022-10-24T01:07:45.448Z,6.40
2022-10-24T01:14:18.558Z,6.50
2022-10-24T01:21:05.313Z,6.10
2022-10-24T01:27:30.654Z,5.80
2022-10-24T01:33:57.720Z,6.20
2022-10-24T01:40:23.057Z,5.70
2022-10-24T01:46:47.464Z,6.00
2022-10-24T01:53:14.745Z,6.20
2022-10-24T01:59:45.832Z,5.70
2022-10-24T02:06:25.426Z,5.30
2022-10-24T02:12:52.560Z,5.90
2022-10-24T02:19:16.760Z,6.20
2022-10-24T02:32:01.925Z,5.20
2022-10-24T02:38:47.974Z,5.70
2022-10-24T02:45:05.849Z,5.20
2022-10-24T02:51:36.251Z,5.70
2022-10-24T02:58:00.526Z,5.30
2022-10-24T03:04:25.060Z,5.20
2022-10-24T03:10:49.813Z,5.40
2022-10-24T03:17:16.784Z,4.90
2022-10-24T03:23:33.566Z,4.50
2022-10-24T03:36:15.139Z,4.90
2022-10-24T03:42:58.206Z,5.00
2022-10-24T03:49:19.037Z,4.40
2022-10-24T03:55:54.885Z,4.80
2022-10-24T04:02:22.511Z,5.00
2022-10-24T04:08:37.679Z,4.80
2022-10-24T04:15:05.075Z,5.30
2022-10-24T04:21:30.734Z,4.70
2022-10-24T04:27:55.848Z,4.50
2022-10-24T04:34:22.449Z,4.80
2022-10-24T04:40:48.469Z,4.60
2022-10-24T04:47:06.125Z,4.60
2022-10-24T04:53:30.429Z,4.90
2022-10-24T04:59:55.362Z,4.70
2022-10-24T05:06:19.593Z,4.60
2022-10-24T05:12:45.678Z,4.80
2022-10-24T05:19:11.123Z,4.50
2022-10-24T05:25:25.967Z,4.80
2022-10-24T05:31:57.143Z,4.50
2022-10-24T05:38:23.705Z,4.60
2022-10-24T05:44:55.137Z,5.70
2022-10-24T05:51:31.518Z,4.70
2022-10-24T06:04:59.420Z,6.00
2022-10-24T06:11:25.277Z,4.60
2022-10-24T06:17:49.545Z,4.90
2022-10-24T06:24:21.565Z,5.00
2022-10-24T06:30:45.966Z,4.80
2022-10-24T06:37:25.227Z,5.10
2022-10-24T06:43:50.621Z,5.20
2022-10-24T06:50:14.936Z,5.30
2022-10-24T06:56:42.866Z,4.70
2022-10-24T07:03:02.512Z,4.60
2022-10-24T07:09:32.207Z,5.00
2022-10-24T07:16:04.174Z,4.80
2022-10-24T07:22:31.405Z,4.70
2022-10-24T07:28:55.368Z,4.70
2022-10-24T07:35:31.870Z,4.80
2022-10-24T07:42:05.304Z,4.00
2022-10-24T07:48:31.278Z,4.10
2022-10-24T07:54:45.452Z,4.80
2022-10-24T08:01:10.495Z,3.90
2022-10-24T08:07:34.867Z,4.90
2022-10-24T08:13:59.026Z,4.30
2022-10-24T08:20:07.980Z,4.60
2022-10-24T08:26:34.369Z,4.20
2022-10-24T08:33:05.449Z,4.00
2022-10-24T08:39:30.378Z,4.40
2022-10-24T08:45:54.681Z,3.90
2022-10-24T08:52:24.361Z,4.60
2022-10-24T08:58:43.087Z,4.30
2022-10-24T09:05:06.694Z,4.10
2022-10-24T09:11:37.240Z,4.80
2022-10-24T09:18:04.540Z,4.30
2022-10-24T09:24:11.343Z,4.80
2022-10-24T09:30:35.616Z,4.80
2022-10-24T09:36:41.218Z,4.70
2022-10-24T09:43:06.408Z,4.80
2022-10-24T09:49:44.188Z,5.00
2022-10-24T09:56:19.448Z,5.00
2022-10-24T10:02:56.263Z,4.60
2022-10-24T10:09:29.241Z,4.50
2022-10-24T10:15:57.356Z,5.00
2022-10-24T10:22:39.093Z,4.70
2022-10-24T10:29:05.676Z,4.50
2022-10-24T10:35:31.156Z,4.60
2022-10-24T10:48:42.119Z,4.40
2022-10-24T10:55:23.033Z,4.60
2022-10-24T11:01:31.122Z,5.10
2022-10-24T11:08:19.431Z,4.90
2022-10-24T11:14:27.374Z,6.60
2022-10-24T11:21:06.359Z,4.90
2022-10-24T11:27:28.490Z,4.90
2022-10-24T11:34:01.546Z,5.50
2022-10-24T11:40:40.814Z,4.90
2022-10-24T11:47:06.622Z,5.20
2022-10-24T11:53:32.050Z,4.70
2022-10-24T11:59:50.358Z,4.90
2022-10-24T12:06:17.882Z,4.60
2022-10-24T12:12:40.927Z,4.70
2022-10-24T12:19:15.028Z,4.30
2022-10-24T12:25:48.093Z,4.70
2022-10-24T12:32:17.369Z,4.50
2022-10-24T12:38:45.265Z,4.20
2022-10-24T12:45:18.487Z,4.60
2022-10-24T12:51:40.688Z,4.20
2022-10-24T12:58:05.984Z,4.40
2022-10-24T13:04:36.267Z,8.40
2022-10-24T13:11:24.495Z,13.80
2022-10-24T13:17:55.967Z,12.30
2022-10-24T13:24:28.377Z,10.90
2022-10-24T13:31:18.100Z,11.30
2022-10-24T13:37:42.541Z,10.20
2022-10-24T13:44:19.047Z,9.70
2022-10-24T13:50:46.656Z,8.90
2022-10-24T13:57:10.993Z,9.20
2022-10-24T14:03:40.100Z,8.50
2022-10-24T14:09:40.575Z,7.80
2022-10-24T14:16:10.510Z,8.00
2022-10-24T14:22:17.974Z,7.30
2022-10-24T14:28:09.043Z,7.30
2022-10-24T14:34:17.919Z,6.70
2022-10-24T14:40:25.282Z,6.90
2022-10-24T14:46:55.187Z,7.00
2022-10-24T14:53:12.756Z,6.70
2022-10-24T15:06:12.928Z,6.30
2022-10-24T15:12:38.902Z,5.80
2022-10-24T15:18:59.552Z,5.70
2022-10-24T15:25:06.248Z,5.60
2022-10-24T15:31:17.493Z,5.70
2022-10-24T15:37:29.659Z,6.00
2022-10-24T15:43:57.163Z,5.60
2022-10-24T15:50:04.210Z,5.50
2022-10-24T15:56:15.153Z,5.70
2022-10-24T16:02:24.571Z,5.30
2022-10-24T16:08:59.849Z,5.30
2022-10-24T16:15:34.337Z,5.60
2022-10-24T16:22:05.534Z,8.00
2022-10-24T16:28:24.786Z,8.00
2022-10-24T16:41:20.833Z,6.70
2022-10-24T16:47:52.692Z,7.90
2022-10-24T17:05:42.317Z,7.40
2022-10-24T17:18:59.301Z,7.50
2022-10-24T17:39:17.388Z,7.60
2022-10-24T17:45:26.934Z,6.80
2022-10-24T17:51:32.202Z,6.80
2022-10-24T17:57:57.695Z,7.60
2022-10-24T18:04:21.051Z,6.90
2022-10-24T18:10:20.608Z,6.40
2022-10-24T18:23:22.556Z,6.70
2022-10-24T18:36:16.157Z,6.00
2022-10-24T18:43:18.361Z,6.40
2022-10-24T18:49:28.372Z,6.20
2022-10-24T18:56:06.360Z,6.00
2022-10-24T19:02:18.213Z,6.00
2022-10-24T19:21:49.964Z,5.90
2022-10-24T19:28:26.510Z,5.70
2022-10-24T19:42:00.337Z,6.60
2022-10-24T19:48:32.165Z,6.70
2022-10-24T19:54:52.403Z,6.70
2022-10-24T20:01:22.560Z,6.60
2022-10-24T20:07:50.752Z,6.80
2022-10-24T20:14:03.749Z,6.90
2022-10-24T20:27:08.745Z,6.20
2022-10-24T20:33:32.924Z,7.20
2022-10-24T20:39:40.248Z,6.60
2022-10-24T20:46:05.563Z,7.10
2022-10-24T20:52:22.651Z,6.60
2022-10-24T20:58:46.974Z,7.30
2022-10-24T21:05:11.574Z,6.70
2022-10-24T21:11:36.023Z,6.40
2022-10-24T21:18:00.361Z,6.60
2022-10-24T21:24:24.070Z,7.40
2022-10-24T21:30:48.963Z,6.80
2022-10-24T21:37:13.422Z,7.00
2022-10-24T21:43:46.218Z,6.60
2022-10-24T21:50:13.582Z,7.40
2022-10-24T21:56:43.461Z,6.10
2022-10-24T22:03:10.827Z,6.30
2022-10-24T22:09:36.404Z,6.60
2022-10-24T22:16:01.690Z,6.50
2022-10-24T22:28:27.777Z,6.30
2022-10-24T22:34:52.201Z,6.60
2022-10-24T22:41:21.423Z,6.60
2022-10-24T22:47:51.224Z,6.70
2022-10-24T22:54:16.114Z,6.60
2022-10-24T23:00:40.479Z,6.70
2022-10-24T23:07:03.370Z,6.00
2022-10-24T23:13:35.558Z,6.50
2022-10-24T23:20:04.606Z,6.10
2022-10-24T23:26:30.949Z,6.20
2022-10-24T23:32:50.303Z,6.10
2022-10-24T23:39:00.591Z,5.60
2022-10-24T23:45:25.013Z,6.00
2022-10-24T23:52:08.398Z,5.70
2022-10-24T23:58:25.136Z,6.10
